Local and Regional Airport Weather



KPVE - Beech River Regional Airport
Distance from station: NW 4mi, 6km
Updated: Mon, Jan-27-2020 2:35am CST
Mist, Overcast
Mist, Overcast
 Wind from SSW
Wind: SSW 3 mph , 6 km/h
Temperature: 46°F , 8°C
Dew Point: 46°F , 8°C
Humidity: 100%
Barometer: 29.91 inHg , 1012.9 hPa
Summary: Mist
Clouds: Overcast
Visibility: 2 miles , 3 km
Cloud details: Overcast 300 ft
2020/01/27 08:35 KPVE 270835Z AUTO 20003KT 2SM BR OVC003 08/08 A2991 RMK A01
KSNH - Savannah Hardin Co. Airport
Distance from station: S 34mi, 54km
Updated: Mon, Jan-27-2020 2:55am CST
Mist, Overcast
Mist, Overcast
 Wind from SW
Wind: SW 5 mph , 7 km/h
Temperature: 46°F , 8°C
Wind Chill: 44°F , 7°C
Dew Point: 46°F , 8°C
Humidity: 100%
Barometer: 29.93 inHg , 1013.5 hPa
Summary: Mist
Clouds: Overcast
Visibility: 3 miles , 5 km
Cloud details: Overcast 400 ft
2020/01/27 08:55 KSNH 270855Z AUTO 23004KT 3SM BR OVC004 08/08 A2993 RMK A01
 
KMKL - McKellar-Sipes Regional Airport
Distance from station: W 44mi, 72km
Updated: Mon, Jan-27-2020 2:53am CST
Overcast
Overcast
 Wind from WSW
Wind: WSW 7 mph , 11 km/h
Temperature: 46°F , 8°C
Wind Chill: 42°F , 6°C
Dew Point: 46°F , 8°C
Humidity: 100%
Barometer: 29.94 inHg , 1013.9 hPa
Clouds: Overcast
Visibility: 9 miles , 14 km
Cloud details: Mostly cloudy 800 ft
Overcast 1500 ft
2020/01/27 08:53 KMKL 270853Z AUTO 25006KT 9SM BKN008 OVC015 08/08 A2994 RMK AO2 CIG 006V013 SLP140 T00830078 56001
KMSL - NW Alabama Regional Airport
Distance from station: SE 78mi, 126km
Updated: Mon, Jan-27-2020 2:53am CST
Overcast
Overcast
 Wind from SSW
Wind: SSW 3 mph , 6 km/h
Temperature: 46°F , 8°C
Dew Point: 45°F , 7°C
Humidity: 93%
Barometer: 29.94 inHg , 1013.9 hPa
Clouds: Overcast
Visibility: 10 miles , 16 km
Cloud details: Overcast 700 ft
2020/01/27 08:53 KMSL 270853Z AUTO 21003KT 10SM OVC007 08/07 A2994 RMK AO2 SLP138 T00830067 55011 $
 
KBNA - Nashville International Airport
Distance from station: NE 97mi, 157km
Updated: Mon, Jan-27-2020 2:53am CST
Overcast
Overcast
 Wind from SSW
Wind: SSW 6 mph , 9 km/h
Temperature: 46°F , 8°C
Wind Chill: 43°F , 6°C
Dew Point: 43°F , 6°C
Humidity: 87%
Barometer: 29.92 inHg , 1013.2 hPa
Clouds: Overcast
Visibility: 7 miles , 11 km
Cloud details: Overcast 700 ft
2020/01/27 08:53 KBNA 270853Z 20005KT 7SM OVC007 08/06 A2992 RMK AO2 RAE0756 SLP131 P0000 60001 T00780056 56010
KMEM - Memphis International Airport
Distance from station: W 108mi, 173km
Updated: Mon, Jan-27-2020 2:54am CST
Overcast
Overcast
 Wind from W
Wind: W 5 mph , 7 km/h
Temperature: 48°F , 9°C
Wind Chill: 46°F , 8°C
Dew Point: 46°F , 8°C
Humidity: 94%
Barometer: 29.96 inHg , 1014.6 hPa
Clouds: Overcast
Visibility: 10 miles , 16 km
Cloud details: Overcast 600 ft
2020/01/27 08:54 KMEM 270854Z 26004KT 10SM OVC006 09/08 A2996 RMK AO2 CIG 005V010 SLP147 T00890083 53001
 
KTYS - Knoxville McGhee Tyson Airport
Distance from station: E 234mi, 377km
Updated: Mon, Jan-27-2020 2:53am CST
Light rain, Overcast
Light rain, Overcast
 Wind from SSW
Wind: SSW 5 mph , 7 km/h
Temperature: 41°F , 5°C
Wind Chill: 38°F , 3°C
Dew Point: 37°F , 3°C
Humidity: 87%
Barometer: 29.91 inHg , 1012.9 hPa
Summary: Light rain
Clouds: Overcast
Visibility: 10 miles , 16 km
Cloud details: Overcast 2300 ft
2020/01/27 08:53 KTYS 270853Z 21004KT 10SM -RA OVC023 05/03 A2991 RMK AO2 SLP131 P0001 60002 T00500033 56008 $
KSTL - St. Louis International Airport
Distance from station: NW 247mi, 398km
Updated: Mon, Jan-27-2020 2:51am CST
Mist, Overcast
Mist, Overcast
 Wind from NW
Wind: NW 10 mph , 17 km/h
Temperature: 30°F , -1°C
Wind Chill: 21°F , -6°C
Dew Point: 28°F , -2°C
Humidity: 93%
Barometer: 29.97 inHg , 1014.9 hPa
Summary: Mist
Clouds: Overcast
Visibility: 1 mile , 2 km
Cloud details: Overcast 300 ft
2020/01/27 08:51 KSTL 270851Z 32009KT 1SM R30R/P6000FT BR OVC003 M01/M02 A2997 RMK AO2 SFC VIS 1 1/2 SLP155 T10111022 53002

Refresh Page for latest data.